createdAt,value
2022-07-29T00:01:44.276Z,100469.61
2022-07-29T00:04:13.554Z,100466.67
2022-07-29T00:06:42.203Z,100467.96
2022-07-29T00:09:10.192Z,100463.41
2022-07-29T00:11:38.361Z,100465.55
2022-07-29T00:14:06.471Z,100464.60
2022-07-29T00:16:34.689Z,100467.67
2022-07-29T00:19:02.918Z,100468.94
2022-07-29T00:21:31.049Z,100474.11
2022-07-29T00:23:58.953Z,100473.02
2022-07-29T00:26:28.754Z,100469.59
2022-07-29T00:29:23.731Z,100469.70
2022-07-29T00:31:44.848Z,100468.56
2022-07-29T00:34:31.667Z,100465.44
2022-07-29T00:36:59.730Z,100463.70
2022-07-29T00:39:27.685Z,100459.94
2022-07-29T00:41:56.495Z,100453.30
2022-07-29T00:44:25.725Z,100457.04
2022-07-29T00:46:53.740Z,100464.48
2022-07-29T00:49:21.918Z,100461.17
2022-07-29T00:51:50.907Z,100458.89
2022-07-29T00:54:19.378Z,100461.05
2022-07-29T00:56:47.656Z,100468.73
2022-07-29T00:59:15.745Z,100466.45
2022-07-29T01:01:43.671Z,100471.54
2022-07-29T01:04:11.662Z,100474.02
2022-07-29T01:06:39.582Z,100474.14
2022-07-29T01:09:08.009Z,100474.96
2022-07-29T01:11:37.085Z,100466.41
2022-07-29T01:14:06.452Z,100464.18
2022-07-29T01:16:42.160Z,100463.81
2022-07-29T01:19:28.145Z,100465.04
2022-07-29T01:21:59.030Z,100466.42
2022-07-29T01:24:45.785Z,100463.10
2022-07-29T01:27:25.649Z,100461.80
2022-07-29T01:29:56.989Z,100456.48
2022-07-29T01:32:31.671Z,100459.73
2022-07-29T01:35:27.965Z,100453.05
2022-07-29T01:38:00.975Z,100455.98
2022-07-29T01:40:39.805Z,100454.48
2022-07-29T01:43:12.095Z,100455.16
2022-07-29T01:45:46.376Z,100455.93
2022-07-29T01:48:47.437Z,100452.67
2022-07-29T01:51:21.865Z,100441.16
2022-07-29T01:53:58.343Z,100443.55
2022-07-29T01:56:30.700Z,100438.57
2022-07-29T01:58:59.682Z,100439.59
2022-07-29T02:01:28.453Z,100434.92
2022-07-29T02:03:57.303Z,100431.52
2022-07-29T02:06:26.510Z,100437.20
2022-07-29T02:08:55.157Z,100432.23
2022-07-29T02:11:23.162Z,100434.00
2022-07-29T02:13:53.935Z,100428.04
2022-07-29T02:16:23.119Z,100430.31
2022-07-29T02:18:54.974Z,100429.19
2022-07-29T02:21:26.348Z,100422.31
2022-07-29T02:23:54.864Z,100425.98
2022-07-29T02:26:24.555Z,100421.90
2022-07-29T02:28:53.651Z,100422.83
2022-07-29T02:35:41.591Z,100421.11
2022-07-29T02:38:33.137Z,100420.02
2022-07-29T02:41:13.000Z,100421.27
2022-07-29T02:43:42.186Z,100421.04
2022-07-29T02:46:28.995Z,100420.61
2022-07-29T02:49:04.089Z,100424.58
2022-07-29T02:51:44.574Z,100422.80
2022-07-29T02:54:24.136Z,100421.98
2022-07-29T02:56:55.694Z,100421.32
2022-07-29T02:59:27.049Z,100424.43
2022-07-29T03:01:56.684Z,100428.87
2022-07-29T03:04:26.158Z,100425.09
2022-07-29T03:06:54.809Z,100424.78
2022-07-29T03:09:24.296Z,100424.36
2022-07-29T03:11:55.142Z,100427.10
2022-07-29T03:14:24.012Z,100433.69
2022-07-29T03:16:52.720Z,100438.70
2022-07-29T03:19:21.541Z,100437.79
2022-07-29T03:21:49.976Z,100439.80
2022-07-29T03:24:47.868Z,100435.94
2022-07-29T03:27:16.015Z,100433.64
2022-07-29T03:29:49.856Z,100431.63
2022-07-29T03:32:23.907Z,100435.70
2022-07-29T03:34:53.692Z,100440.86
2022-07-29T03:37:21.562Z,100441.40
2022-07-29T03:39:50.898Z,100441.39
2022-07-29T03:42:20.894Z,100440.04
2022-07-29T03:44:50.177Z,100437.60
2022-07-29T03:47:21.440Z,100438.27
2022-07-29T03:49:51.766Z,100444.05
2022-07-29T03:52:19.855Z,100447.80
2022-07-29T03:54:47.933Z,100446.50
2022-07-29T03:57:16.741Z,100444.94
2022-07-29T03:59:45.397Z,100452.20
2022-07-29T04:02:14.916Z,100441.69
2022-07-29T04:04:45.630Z,100438.59
2022-07-29T04:07:14.863Z,100437.44
2022-07-29T04:09:42.933Z,100440.77
2022-07-29T04:12:11.328Z,100444.08
2022-07-29T04:14:39.302Z,100444.09
2022-07-29T04:17:07.267Z,100443.62
2022-07-29T04:19:35.220Z,100442.41
2022-07-29T04:22:03.729Z,100441.53
2022-07-29T04:24:31.708Z,100439.91
2022-07-29T04:26:59.750Z,100441.50
2022-07-29T04:29:27.718Z,100438.58
2022-07-29T04:31:55.739Z,100435.64
2022-07-29T04:34:28.034Z,100439.81
2022-07-29T04:36:56.769Z,100440.27
2022-07-29T04:39:25.449Z,100434.96
2022-07-29T04:41:57.889Z,100435.39
2022-07-29T04:44:29.015Z,100428.00
2022-07-29T04:46:58.374Z,100431.01
2022-07-29T04:49:26.648Z,100428.21
2022-07-29T04:51:54.808Z,100428.19
2022-07-29T04:54:23.264Z,100427.16
2022-07-29T04:56:51.208Z,100426.16
2022-07-29T04:59:19.152Z,100434.88
2022-07-29T05:01:47.176Z,100434.77
2022-07-29T05:04:15.443Z,100442.02
2022-07-29T05:06:43.641Z,100437.55
2022-07-29T05:09:11.586Z,100438.77
2022-07-29T05:11:39.515Z,100441.45
2022-07-29T05:14:07.411Z,100442.02
2022-07-29T05:16:35.582Z,100443.91
2022-07-29T05:19:03.746Z,100443.07
2022-07-29T05:21:31.635Z,100441.70
2022-07-29T05:24:00.598Z,100440.86
2022-07-29T05:26:28.790Z,100445.96
2022-07-29T05:28:58.038Z,100446.42
2022-07-29T05:31:26.125Z,100440.88
2022-07-29T05:33:54.167Z,100441.91
2022-07-29T05:36:22.445Z,100442.07
2022-07-29T05:38:51.854Z,100440.84
2022-07-29T05:41:20.576Z,100443.38
2022-07-29T05:43:48.587Z,100441.23
2022-07-29T05:46:16.735Z,100444.78
2022-07-29T05:48:44.884Z,100444.45
2022-07-29T05:51:12.881Z,100448.17
2022-07-29T05:53:40.834Z,100451.34
2022-07-29T05:56:08.846Z,100449.35
2022-07-29T05:58:37.312Z,100450.69
2022-07-29T06:01:05.304Z,100455.34
2022-07-29T06:03:33.343Z,100457.18
2022-07-29T06:06:01.414Z,100455.66
2022-07-29T06:08:29.347Z,100453.73
2022-07-29T06:10:57.314Z,100453.45
2022-07-29T06:13:25.228Z,100448.80
2022-07-29T06:15:53.223Z,100449.16
2022-07-29T06:18:24.686Z,100451.94
2022-07-29T06:20:53.632Z,100445.09
2022-07-29T06:23:21.869Z,100443.49
2022-07-29T06:25:49.866Z,100442.69
2022-07-29T06:28:18.017Z,100441.98
2022-07-29T06:30:46.030Z,100440.33
2022-07-29T06:33:18.153Z,100442.63
2022-07-29T06:35:53.604Z,100442.98
2022-07-29T06:38:30.860Z,100440.31
2022-07-29T06:41:01.287Z,100443.02
2022-07-29T06:43:42.711Z,100440.14
2022-07-29T06:46:21.137Z,100441.95
2022-07-29T06:48:50.038Z,100442.69
2022-07-29T06:51:22.430Z,100450.14
2022-07-29T06:54:00.462Z,100456.59
2022-07-29T06:56:38.590Z,100456.70
2022-07-29T06:59:09.452Z,100454.63
2022-07-29T07:01:38.639Z,100451.77
2022-07-29T07:04:07.307Z,100453.27
2022-07-29T07:06:36.034Z,100447.45
2022-07-29T07:09:04.571Z,100452.79
2022-07-29T07:11:33.455Z,100450.27
2022-07-29T07:14:14.499Z,100450.58
2022-07-29T07:16:42.639Z,100456.26
2022-07-29T07:19:10.651Z,100459.04
2022-07-29T07:21:38.639Z,100460.27
2022-07-29T07:24:07.014Z,100458.42
2022-07-29T07:26:34.946Z,100455.45
2022-07-29T07:29:02.993Z,100452.45
2022-07-29T07:31:31.042Z,100450.96
2022-07-29T07:33:59.249Z,100448.84
2022-07-29T07:36:27.159Z,100445.84
2022-07-29T07:38:55.180Z,100443.45
2022-07-29T07:41:23.439Z,100446.12
2022-07-29T07:43:52.167Z,100442.11
2022-07-29T07:46:20.528Z,100443.35
2022-07-29T07:48:48.678Z,100441.03
2022-07-29T07:51:16.676Z,100438.48
2022-07-29T07:53:46.178Z,100442.73
2022-07-29T07:56:14.116Z,100437.95
2022-07-29T07:58:42.018Z,100436.23
2022-07-29T08:01:10.688Z,100432.29
2022-07-29T08:03:38.889Z,100432.05
2022-07-29T08:06:07.518Z,100437.20
2022-07-29T08:08:35.693Z,100433.88
2022-07-29T08:11:08.931Z,100437.86
2022-07-29T08:13:38.983Z,100437.66
2022-07-29T08:16:14.180Z,100438.10
2022-07-29T08:18:43.984Z,100442.34
2022-07-29T08:21:15.106Z,100442.06
2022-07-29T08:23:52.698Z,100446.95
2022-07-29T08:26:23.626Z,100445.95
2022-07-29T08:28:51.916Z,100446.51
2022-07-29T08:31:20.250Z,100446.91
2022-07-29T08:33:48.206Z,100444.70
2022-07-29T08:36:16.165Z,100444.28
2022-07-29T08:38:44.194Z,100446.66
2022-07-29T08:41:12.468Z,100441.99
2022-07-29T08:43:42.000Z,100437.92
2022-07-29T08:46:11.061Z,100435.42
2022-07-29T08:48:40.218Z,100436.15
2022-07-29T08:51:09.093Z,100433.42
2022-07-29T08:53:39.360Z,100430.18
2022-07-29T08:56:07.606Z,100426.34
2022-07-29T08:58:36.769Z,100429.00
2022-07-29T09:01:07.686Z,100426.39
2022-07-29T09:03:41.560Z,100424.23
2022-07-29T09:06:09.721Z,100424.12
2022-07-29T09:08:37.635Z,100424.85
2022-07-29T09:11:05.878Z,100422.62
2022-07-29T09:13:34.199Z,100424.48
2022-07-29T09:16:08.634Z,100425.73
2022-07-29T09:18:41.675Z,100425.91
2022-07-29T09:21:32.098Z,100428.85
2022-07-29T09:24:04.771Z,100424.73
2022-07-29T09:26:33.761Z,100424.03
2022-07-29T09:29:09.386Z,100426.53
2022-07-29T09:31:40.398Z,100425.45
2022-07-29T09:34:09.250Z,100428.23
2022-07-29T09:36:45.068Z,100421.46
2022-07-29T09:39:14.128Z,100419.95
2022-07-29T09:41:47.415Z,100418.48
2022-07-29T09:44:16.127Z,100416.02
2022-07-29T09:47:07.760Z,100413.27
2022-07-29T09:49:36.403Z,100411.34
2022-07-29T09:52:12.351Z,100409.09
2022-07-29T09:54:40.344Z,100402.90
2022-07-29T09:57:13.761Z,100402.99
2022-07-29T09:59:57.347Z,100400.11
2022-07-29T10:02:29.814Z,100397.27
2022-07-29T10:04:58.122Z,100389.02
2022-07-29T10:07:26.459Z,100389.77
2022-07-29T10:09:58.277Z,100385.20
2022-07-29T10:12:26.178Z,100384.53
2022-07-29T10:14:54.106Z,100384.78
2022-07-29T10:21:57.929Z,100384.29
2022-07-29T10:24:30.763Z,100384.86
2022-07-29T10:27:00.840Z,100386.33
2022-07-29T10:29:32.469Z,100380.53
2022-07-29T10:32:16.043Z,100380.09
2022-07-29T10:35:03.310Z,100377.83
2022-07-29T10:37:45.799Z,100377.07
2022-07-29T10:40:47.740Z,100373.84
2022-07-29T10:43:37.070Z,100368.34
2022-07-29T10:46:07.370Z,100370.91
2022-07-29T10:48:36.056Z,100368.34
2022-07-29T10:51:07.160Z,100362.75
2022-07-29T10:53:48.031Z,100364.47
2022-07-29T10:56:26.988Z,100365.45
2022-07-29T10:59:23.027Z,100361.58
2022-07-29T11:01:53.739Z,100355.96
2022-07-29T11:04:44.620Z,100357.06
2022-07-29T11:07:13.706Z,100365.15
2022-07-29T11:09:43.903Z,100360.58
2022-07-29T11:12:49.925Z,100362.11
2022-07-29T11:15:22.713Z,100364.02
2022-07-29T11:17:59.434Z,100360.84
2022-07-29T11:20:54.573Z,100362.23
2022-07-29T11:23:33.439Z,100352.30
2022-07-29T11:26:18.982Z,100358.14
2022-07-29T11:29:18.662Z,100359.08
2022-07-29T11:31:50.859Z,100355.41
2022-07-29T11:34:28.112Z,100354.81
2022-07-29T11:37:06.366Z,100355.52
2022-07-29T11:42:28.181Z,100359.67
2022-07-29T11:45:33.423Z,100363.83
2022-07-29T11:48:05.413Z,100359.67
2022-07-29T11:53:36.774Z,100365.98
2022-07-29T11:56:05.241Z,100364.07
2022-07-29T11:58:33.490Z,100363.73
2022-07-29T12:01:04.957Z,100359.98
2022-07-29T12:03:35.762Z,100354.94
2022-07-29T12:06:14.852Z,100351.17
2022-07-29T12:07:01.815Z,100357.69
2022-07-29T12:08:44.357Z,100350.02
2022-07-29T12:11:21.760Z,100352.79
2022-07-29T12:13:53.427Z,100356.59
2022-07-29T12:16:25.755Z,100349.91
2022-07-29T12:19:02.888Z,100351.28
2022-07-29T12:21:56.159Z,100349.48
2022-07-29T12:24:26.742Z,100347.44
2022-07-29T12:26:59.687Z,100346.27
2022-07-29T12:29:34.988Z,100342.74
2022-07-29T12:32:07.207Z,100340.23
2022-07-29T12:34:43.212Z,100332.41
2022-07-29T12:37:12.456Z,100331.20
2022-07-29T12:39:40.755Z,100326.33
2022-07-29T12:42:18.424Z,100325.60
2022-07-29T12:44:48.329Z,100320.18
2022-07-29T12:47:17.210Z,100318.38
2022-07-29T12:49:46.081Z,100314.45
2022-07-29T12:52:30.916Z,100313.04
2022-07-29T12:54:59.340Z,100312.10
2022-07-29T12:57:27.999Z,100309.73
2022-07-29T13:00:05.066Z,100310.30
2022-07-29T13:02:33.986Z,100307.84
2022-07-29T13:05:02.816Z,100304.40
2022-07-29T13:07:55.050Z,100301.81
2022-07-29T13:10:24.244Z,100294.84
2022-07-29T13:13:10.462Z,100292.30
2022-07-29T13:15:40.342Z,100295.41
2022-07-29T13:18:28.198Z,100292.92
2022-07-29T13:20:56.344Z,100292.80
2022-07-29T13:23:24.370Z,100291.95
2022-07-29T13:25:52.295Z,100288.14
2022-07-29T13:28:22.538Z,100280.04
2022-07-29T13:30:50.742Z,100275.84
2022-07-29T13:33:19.128Z,100271.56
2022-07-29T13:35:48.463Z,100262.95
2022-07-29T13:38:16.574Z,100266.22
2022-07-29T13:40:44.779Z,100266.64
2022-07-29T13:43:12.896Z,100267.46
2022-07-29T13:45:40.839Z,100268.39
2022-07-29T13:48:08.899Z,100266.98
2022-07-29T13:50:36.790Z,100260.98
2022-07-29T13:53:05.009Z,100261.80
2022-07-29T13:55:32.994Z,100262.61
2022-07-29T13:58:01.046Z,100264.54
2022-07-29T14:00:32.367Z,100259.93
2022-07-29T14:03:00.308Z,100263.73
2022-07-29T14:05:28.389Z,100261.55
2022-07-29T14:07:56.297Z,100261.03
2022-07-29T14:10:24.396Z,100250.77
2022-07-29T14:12:52.350Z,100249.38
2022-07-29T14:15:21.263Z,100247.74
2022-07-29T14:17:49.245Z,100247.89
2022-07-29T14:20:17.347Z,100241.85
2022-07-29T14:22:45.733Z,100244.46
2022-07-29T14:25:14.878Z,100247.17
2022-07-29T14:27:44.747Z,100252.86
2022-07-29T14:30:13.119Z,100250.98
2022-07-29T14:32:41.295Z,100251.32
2022-07-29T14:35:09.475Z,100250.63
2022-07-29T14:37:40.371Z,100254.68
2022-07-29T14:40:10.036Z,100250.67
2022-07-29T14:42:39.769Z,100251.36
2022-07-29T14:45:09.452Z,100246.02
2022-07-29T14:47:38.334Z,100247.27
2022-07-29T14:50:07.031Z,100252.08
2022-07-29T14:52:35.184Z,100249.45
2022-07-29T14:55:04.344Z,100245.45
2022-07-29T14:57:32.973Z,100241.92
2022-07-29T15:00:02.190Z,100239.16
2022-07-29T15:02:52.096Z,100237.71
2022-07-29T15:05:18.081Z,100232.96
2022-07-29T15:07:46.053Z,100229.02
2022-07-29T15:10:14.708Z,100235.27
2022-07-29T15:12:43.686Z,100232.91
2022-07-29T15:15:11.822Z,100228.85
2022-07-29T15:17:39.957Z,100228.66
2022-07-29T15:20:08.479Z,100228.09
2022-07-29T15:22:36.431Z,100224.98
2022-07-29T15:25:05.420Z,100221.70
2022-07-29T15:27:33.365Z,100218.81
2022-07-29T15:30:01.478Z,100218.80
2022-07-29T15:32:29.409Z,100218.65
2022-07-29T15:34:57.380Z,100215.32
2022-07-29T15:37:25.288Z,100216.02
2022-07-29T15:39:56.016Z,100211.80
2022-07-29T15:42:27.704Z,100215.16
2022-07-29T15:44:57.738Z,100214.71
2022-07-29T15:47:25.692Z,100219.14
2022-07-29T15:49:53.697Z,100217.89
2022-07-29T15:52:25.087Z,100211.13
2022-07-29T15:54:56.161Z,100207.38
2022-07-29T15:57:24.646Z,100204.95
2022-07-29T15:59:52.989Z,100208.67
2022-07-29T16:02:20.904Z,100207.34
2022-07-29T16:04:49.225Z,100206.01
2022-07-29T16:07:17.587Z,100205.38
2022-07-29T16:09:50.866Z,100201.46
2022-07-29T16:12:21.004Z,100202.44
2022-07-29T16:14:50.993Z,100205.42
2022-07-29T16:17:19.282Z,100200.63
2022-07-29T16:19:47.238Z,100202.20
2022-07-29T16:22:15.382Z,100204.58
2022-07-29T16:24:43.516Z,100203.31
2022-07-29T16:27:11.583Z,100195.04
2022-07-29T16:29:39.662Z,100189.40
2022-07-29T16:32:07.723Z,100191.86
2022-07-29T16:34:35.680Z,100189.01
2022-07-29T16:37:03.990Z,100186.20
2022-07-29T16:39:32.358Z,100180.64
2022-07-29T16:42:03.939Z,100179.88
2022-07-29T16:44:31.993Z,100175.77
2022-07-29T16:47:00.468Z,100172.05
2022-07-29T16:49:29.189Z,100172.80
2022-07-29T16:51:57.094Z,100173.98
2022-07-29T16:54:25.116Z,100174.27
2022-07-29T16:56:53.152Z,100174.96
2022-07-29T16:59:21.127Z,100174.08
2022-07-29T17:01:49.122Z,100170.84
2022-07-29T17:04:17.574Z,100176.55
2022-07-29T17:06:45.740Z,100175.80
2022-07-29T17:09:16.418Z,100176.79
2022-07-29T17:11:53.508Z,100174.30
2022-07-29T17:14:25.376Z,100171.30
2022-07-29T17:17:02.367Z,100165.55
2022-07-29T17:19:34.157Z,100164.89
2022-07-29T17:22:11.280Z,100166.70
2022-07-29T17:24:41.353Z,100170.67
2022-07-29T17:27:10.473Z,100174.92
2022-07-29T17:29:39.340Z,100172.27
2022-07-29T17:32:09.088Z,100173.60
2022-07-29T17:34:41.716Z,100176.98
2022-07-29T17:37:10.900Z,100175.83
2022-07-29T17:39:41.167Z,100175.65
2022-07-29T17:42:10.975Z,100172.61
2022-07-29T17:44:39.873Z,100173.84
2022-07-29T17:47:10.744Z,100177.79
2022-07-29T17:49:45.432Z,100178.88
2022-07-29T17:52:13.665Z,100179.88
2022-07-29T17:54:41.683Z,100181.02
2022-07-29T17:57:09.654Z,100176.20
2022-07-29T17:59:37.618Z,100177.11
2022-07-29T18:02:05.684Z,100181.58
2022-07-29T18:04:33.839Z,100184.98
2022-07-29T18:07:02.150Z,100183.67
2022-07-29T18:09:30.317Z,100185.77
2022-07-29T18:11:58.935Z,100185.12
2022-07-29T18:14:27.253Z,100185.59
2022-07-29T18:16:55.223Z,100187.35
2022-07-29T18:19:23.180Z,100192.59
2022-07-29T18:21:56.545Z,100192.68
2022-07-29T18:24:29.082Z,100193.50
2022-07-29T18:26:57.396Z,100193.80
2022-07-29T18:29:25.541Z,100194.66
2022-07-29T18:31:53.606Z,100197.20
2022-07-29T18:34:22.872Z,100191.45
2022-07-29T18:36:52.363Z,100192.48
2022-07-29T18:39:21.168Z,100191.35
2022-07-29T18:41:52.209Z,100187.14
2022-07-29T18:44:22.120Z,100187.84
2022-07-29T18:46:52.016Z,100187.23
2022-07-29T18:49:20.653Z,100189.95
2022-07-29T18:51:49.932Z,100186.45
2022-07-29T18:54:18.836Z,100186.14
2022-07-29T18:56:47.178Z,100190.75
2022-07-29T18:59:21.632Z,100195.73
2022-07-29T19:01:49.874Z,100193.64
2022-07-29T19:04:17.992Z,100194.33
2022-07-29T19:06:46.063Z,100197.73
2022-07-29T19:09:14.621Z,100198.52
2022-07-29T19:11:42.631Z,100201.86
2022-07-29T19:14:10.624Z,100203.02
2022-07-29T19:16:38.808Z,100203.70
2022-07-29T19:19:08.884Z,100204.27
2022-07-29T19:21:36.894Z,100202.02
2022-07-29T19:24:11.032Z,100202.59
2022-07-29T19:26:46.774Z,100205.88
2022-07-29T19:29:15.542Z,100206.55
2022-07-29T19:31:44.727Z,100210.90
2022-07-29T19:34:12.917Z,100208.30
2022-07-29T19:36:41.807Z,100214.54
2022-07-29T19:39:09.951Z,100210.42
2022-07-29T19:41:38.109Z,100211.27
2022-07-29T19:44:06.360Z,100213.20
2022-07-29T19:46:34.937Z,100208.95
2022-07-29T19:49:06.581Z,100208.23
2022-07-29T19:51:34.628Z,100202.91
2022-07-29T19:54:02.946Z,100200.45
2022-07-29T19:56:31.956Z,100198.27
2022-07-29T19:59:00.738Z,100198.08
2022-07-29T20:01:33.096Z,100198.47
2022-07-29T20:04:01.416Z,100200.61
2022-07-29T20:06:29.473Z,100205.83
2022-07-29T20:08:58.946Z,100213.45
2022-07-29T20:11:27.532Z,100207.42
2022-07-29T20:13:55.474Z,100210.16
2022-07-29T20:16:23.534Z,100201.94
2022-07-29T20:18:53.771Z,100194.11
2022-07-29T20:21:21.820Z,100189.52
2022-07-29T20:23:51.697Z,100186.20
2022-07-29T20:26:20.569Z,100187.47
2022-07-29T20:28:49.553Z,100192.08
2022-07-29T20:31:18.907Z,100201.08
2022-07-29T20:33:48.132Z,100203.11
2022-07-29T20:36:18.374Z,100202.06
2022-07-29T20:38:51.484Z,100209.70
2022-07-29T20:41:27.322Z,100220.98
2022-07-29T20:43:56.532Z,100218.86
2022-07-29T20:46:25.148Z,100215.65
2022-07-29T20:48:53.841Z,100214.16
2022-07-29T20:51:31.773Z,100210.45
2022-07-29T20:54:12.036Z,100209.77
2022-07-29T20:56:41.430Z,100208.02
2022-07-29T20:59:09.547Z,100210.23
2022-07-29T21:01:37.604Z,100217.77
2022-07-29T21:04:05.850Z,100220.63
2022-07-29T21:06:34.711Z,100228.69
2022-07-29T21:09:02.763Z,100218.95
2022-07-29T21:11:44.579Z,100212.92
2022-07-29T21:14:42.666Z,100207.41
2022-07-29T21:17:10.647Z,100202.30
2022-07-29T21:19:38.793Z,100200.52
2022-07-29T21:22:07.200Z,100199.30
2022-07-29T21:24:35.313Z,100199.55
2022-07-29T21:27:22.054Z,100203.00
2022-07-29T21:29:50.092Z,100203.02
2022-07-29T21:32:29.705Z,100202.14
2022-07-29T21:34:58.361Z,100203.89
2022-07-29T21:37:26.308Z,100208.66
2022-07-29T21:39:54.235Z,100211.36
2022-07-29T21:42:22.157Z,100209.83
2022-07-29T21:44:50.522Z,100210.17
2022-07-29T21:47:18.452Z,100208.39
2022-07-29T21:49:46.669Z,100206.13
2022-07-29T21:52:18.154Z,100205.23
2022-07-29T21:54:46.159Z,100210.34
2022-07-29T21:57:17.214Z,100210.58
2022-07-29T21:59:45.158Z,100208.55
2022-07-29T22:02:13.108Z,100207.19
2022-07-29T22:04:41.134Z,100206.86
2022-07-29T22:07:09.053Z,100201.26
2022-07-29T22:09:36.933Z,100197.31
2022-07-29T22:12:05.228Z,100190.24
2022-07-29T22:14:33.180Z,100186.52
2022-07-29T22:17:01.421Z,100185.88
2022-07-29T22:19:29.866Z,100190.97
2022-07-29T22:21:58.279Z,100191.19
2022-07-29T22:24:26.184Z,100194.86
2022-07-29T22:26:54.117Z,100197.45
2022-07-29T22:29:22.058Z,100194.36
2022-07-29T22:31:50.073Z,100195.85
2022-07-29T22:34:18.049Z,100195.27
2022-07-29T22:36:49.579Z,100195.84
2022-07-29T22:39:17.548Z,100193.59
2022-07-29T22:41:45.436Z,100183.32
2022-07-29T22:44:13.427Z,100180.52
2022-07-29T22:46:41.468Z,100181.52
2022-07-29T22:49:09.447Z,100181.66
2022-07-29T22:51:37.502Z,100175.31
2022-07-29T22:54:06.200Z,100171.04
2022-07-29T22:56:34.140Z,100173.55
2022-07-29T22:59:02.277Z,100166.56
2022-07-29T23:01:37.268Z,100167.20
2022-07-29T23:04:06.805Z,100168.23
2022-07-29T23:06:34.813Z,100165.20
2022-07-29T23:09:03.610Z,100162.05
2022-07-29T23:11:31.828Z,100163.61
2022-07-29T23:13:59.754Z,100157.19
2022-07-29T23:16:27.782Z,100150.77
2022-07-29T23:18:55.763Z,100144.55
2022-07-29T23:21:23.775Z,100137.29
2022-07-29T23:23:52.108Z,100132.23
2022-07-29T23:26:20.465Z,100130.02
2022-07-29T23:28:48.387Z,100125.14
2022-07-29T23:31:16.420Z,100124.88
2022-07-29T23:33:44.366Z,100124.39
2022-07-29T23:36:12.267Z,100119.59
2022-07-29T23:38:44.244Z,100121.45
2022-07-29T23:41:12.326Z,100121.85
2022-07-29T23:43:40.275Z,100125.00
2022-07-29T23:46:08.276Z,100123.10
2022-07-29T23:48:36.340Z,100123.20
2022-07-29T23:51:04.375Z,100120.14
2022-07-29T23:53:36.372Z,100117.44
2022-07-29T23:56:05.178Z,100118.98
2022-07-29T23:58:33.913Z,100115.19
